Time;durP1;ratioP1;P1;durP2;ratioP2;P2;SDS_P1;SDS_P2;PMS_P1;PMS_P2;Temp;Humidity;BMP_temperature;BMP_pressure;BME280_temperature;BME280_humidity;BME280_pressure;Samples;Min_cycle;Max_cycle;Signal;HPM_P1;HPM_P2
2021/01/09 00:00:06;;;;;;;;;;;23.60;82.50;;;;;;5014260;28;20343;-78
2021/01/09 00:02:32;;;;;;;;;;;23.70;81.30;;;;;;5031781;28;20340;-78
2021/01/09 00:04:59;;;;;;;;;;;23.70;81.70;;;;;;5032879;28;19932;-79
2021/01/09 00:07:26;;;;;;;;;;;23.70;82.70;;;;;;5030934;28;20051;-80
2021/01/09 00:09:52;;;;;;;;;;;23.90;79.80;;;;;;5028226;28;19913;-80
2021/01/09 00:12:19;;;;;;;;;;;23.90;79.40;;;;;;5025437;28;19917;-81
2021/01/09 00:14:46;;;;;;;;;;;23.90;78.40;;;;;;5032555;28;20007;-78
2021/01/09 00:17:12;;;;;;;;;;;23.90;79.40;;;;;;5034167;28;19909;-78
2021/01/09 00:19:40;;;;;;;;;;;23.90;79.40;;;;;;5034068;28;19909;-78
2021/01/09 00:22:07;;;;;;;;;;;23.80;80.20;;;;;;5032712;28;19913;-79
2021/01/09 00:24:34;;;;;;;;;;;24.10;80.90;;;;;;5032687;28;20011;-79
2021/01/09 00:27:00;;;;;;;;;;;24.10;79.50;;;;;;5042340;28;19909;-78
2021/01/09 00:29:27;;;;;;;;;;;24.10;80.60;;;;;;5016257;28;20004;-81
2021/01/09 00:31:54;;;;;;;;;;;24.10;79.20;;;;;;5021251;28;19952;-80
2021/01/09 00:34:20;;;;;;;;;;;24.30;78.50;;;;;;5032318;28;19916;-81
2021/01/09 00:36:50;;;;;;;;;;;24.20;79.40;;;;;;5031838;28;20391;-80
2021/01/09 00:39:17;;;;;;;;;;;24.20;77.90;;;;;;5032253;28;19913;-79
2021/01/09 00:41:43;;;;;;;;;;;24.20;77.00;;;;;;5031868;28;19928;-80
2021/01/09 00:44:10;;;;;;;;;;;24.40;78.50;;;;;;5032138;28;19909;-80
2021/01/09 00:46:37;;;;;;;;;;;24.70;77.00;;;;;;4926553;28;3018989;-80
2021/01/09 00:49:04;;;;;;;;;;;24.80;73.50;;;;;;5032963;28;19924;-81
2021/01/09 00:51:30;;;;;;;;;;;24.90;74.70;;;;;;5023676;28;19956;-81
2021/01/09 00:53:57;;;;;;;;;;;25.20;73.40;;;;;;5012583;28;20371;-80
2021/01/09 00:56:24;;;;;;;;;;;25.70;72.00;;;;;;5012934;28;20391;-79
2021/01/09 00:58:52;;;;;;;;;;;25.80;70.80;;;;;;5012849;28;19910;-81
2021/01/09 01:01:18;;;;;;;;;;;25.80;70.00;;;;;;5021106;28;19909;-82
2021/01/09 01:03:45;;;;;;;;;;;25.90;70.00;;;;;;5032300;28;19995;-79
2021/01/09 01:06:12;;;;;;;;;;;25.80;69.60;;;;;;5032257;28;19963;-79
2021/01/09 01:08:39;;;;;;;;;;;25.90;70.20;;;;;;5032542;28;19921;-79
2021/01/09 01:11:06;;;;;;;;;;;26.10;69.10;;;;;;5032580;28;19909;-80
2021/01/09 01:13:33;;;;;;;;;;;26.10;68.80;;;;;;5032726;28;19955;-81
2021/01/09 01:15:59;;;;;;;;;;;26.00;66.60;;;;;;5032992;28;19917;-80
2021/01/09 01:18:26;;;;;;;;;;;25.90;68.00;;;;;;5032755;28;19909;-81
2021/01/09 01:20:53;;;;;;;;;;;26.20;68.90;;;;;;5032004;28;19916;-81
2021/01/09 01:23:19;;;;;;;;;;;26.30;69.60;;;;;;5031437;28;19971;-80
2021/01/09 01:25:46;;;;;;;;;;;26.30;69.00;;;;;;5031653;28;19909;-81
2021/01/09 01:28:13;;;;;;;;;;;26.30;68.20;;;;;;5034364;28;19913;-81
2021/01/09 01:30:39;;;;;;;;;;;26.20;68.40;;;;;;5036074;28;19916;-80
2021/01/09 01:33:06;;;;;;;;;;;26.20;68.30;;;;;;5036259;28;20064;-81
2021/01/09 01:35:33;;;;;;;;;;;26.20;67.30;;;;;;5036179;28;19909;-81
2021/01/09 01:37:59;;;;;;;;;;;26.20;66.90;;;;;;5035516;28;19909;-80
2021/01/09 01:40:26;;;;;;;;;;;26.30;67.10;;;;;;5035941;28;20281;-79
2021/01/09 01:42:57;;;;;;;;;;;26.10;66.00;;;;;;5037153;28;19909;-78
2021/01/09 01:45:24;;;;;;;;;;;25.90;67.70;;;;;;5035775;28;19967;-79
2021/01/09 01:47:50;;;;;;;;;;;26.20;68.30;;;;;;5035923;28;19921;-81
2021/01/09 01:50:17;;;;;;;;;;;26.30;64.70;;;;;;5034240;28;19924;-80
2021/01/09 01:52:45;;;;;;;;;;;26.30;66.10;;;;;;5034087;28;19947;-84
2021/01/09 01:55:12;;;;;;;;;;;26.40;66.00;;;;;;5041017;28;19910;-82
2021/01/09 01:57:39;;;;;;;;;;;26.20;67.20;;;;;;5045889;28;20012;-84
2021/01/09 02:00:13;;;;;;;;;;;25.80;67.10;;;;;;5022632;28;19913;-83
2021/01/09 02:02:39;;;;;;;;;;;25.80;67.80;;;;;;5018032;28;20417;-83
2021/01/09 02:05:08;;;;;;;;;;;25.70;67.90;;;;;;5017681;28;19966;-83
2021/01/09 02:07:38;;;;;;;;;;;25.50;68.00;;;;;;5034675;28;19917;-84
2021/01/09 02:10:06;;;;;;;;;;;25.30;69.70;;;;;;5035274;28;19968;-83
2021/01/09 02:12:40;;;;;;;;;;;25.20;70.20;;;;;;5035035;28;19944;-83
2021/01/09 02:15:07;;;;;;;;;;;25.10;71.80;;;;;;5035997;28;20321;-82
2021/01/09 02:17:35;;;;;;;;;;;25.10;72.00;;;;;;5035305;28;19909;-86
2021/01/09 02:20:03;;;;;;;;;;;25.00;71.30;;;;;;5035163;28;19913;-82
2021/01/09 02:22:45;;;;;;;;;;;25.00;71.30;;;;;;5014215;28;20379;-86
2021/01/09 02:25:12;;;;;;;;;;;24.80;71.10;;;;;;5035250;28;20063;-84
2021/01/09 02:27:39;;;;;;;;;;;24.80;72.80;;;;;;5034682;28;19913;-81
2021/01/09 02:30:15;;;;;;;;;;;24.90;71.80;;;;;;5037362;28;19913;-83
2021/01/09 02:32:52;;;;;;;;;;;25.00;71.60;;;;;;5016950;28;19921;-84
2021/01/09 02:35:21;;;;;;;;;;;24.80;70.80;;;;;;5041573;28;19945;-81
2021/01/09 02:37:47;;;;;;;;;;;24.70;71.20;;;;;;5045056;28;19928;-83
2021/01/09 02:40:18;;;;;;;;;;;24.60;71.70;;;;;;5038129;28;20275;-88
2021/01/09 02:42:45;;;;;;;;;;;24.50;71.50;;;;;;5035723;28;19923;-85
2021/01/09 02:45:12;;;;;;;;;;;24.40;72.30;;;;;;5035785;28;19910;-82
2021/01/09 02:47:39;;;;;;;;;;;24.30;71.10;;;;;;5006820;28;20004;-84
2021/01/09 02:50:06;;;;;;;;;;;24.40;72.40;;;;;;5015172;28;19914;-84
2021/01/09 02:52:33;;;;;;;;;;;24.40;72.00;;;;;;5012953;28;20340;-83
2021/01/09 02:54:59;;;;;;;;;;;24.20;71.50;;;;;;5023225;28;19921;-81
2021/01/09 02:57:26;;;;;;;;;;;24.30;73.30;;;;;;5016780;28;19909;-82
2021/01/09 02:59:53;;;;;;;;;;;24.30;72.00;;;;;;5034466;28;19920;-80
2021/01/09 03:02:19;;;;;;;;;;;24.50;72.30;;;;;;5033594;28;19913;-81
2021/01/09 03:04:46;;;;;;;;;;;24.50;72.30;;;;;;5034600;28;20390;-83
2021/01/09 03:07:13;;;;;;;;;;;24.50;72.20;;;;;;5034616;28;19999;-82
2021/01/09 03:09:39;;;;;;;;;;;24.50;72.70;;;;;;5016353;28;19944;-84
2021/01/09 03:12:07;;;;;;;;;;;24.50;71.40;;;;;;5034495;28;19917;-84
2021/01/09 03:14:34;;;;;;;;;;;24.40;72.20;;;;;;5034822;28;19955;-82
2021/01/09 03:17:01;;;;;;;;;;;24.50;73.50;;;;;;5034592;28;19963;-83
2021/01/09 03:19:27;;;;;;;;;;;24.40;73.60;;;;;;5034215;28;20306;-85
2021/01/09 03:21:54;;;;;;;;;;;24.50;72.30;;;;;;5032412;28;19909;-88
2021/01/09 03:24:21;;;;;;;;;;;24.50;71.00;;;;;;5034852;28;20004;-84
2021/01/09 03:26:48;;;;;;;;;;;24.30;70.30;;;;;;5034167;28;20378;-82
2021/01/09 03:29:15;;;;;;;;;;;24.20;71.10;;;;;;5033926;28;19945;-81
2021/01/09 03:31:41;;;;;;;;;;;24.20;72.30;;;;;;5034493;28;20374;-83
2021/01/09 03:34:08;;;;;;;;;;;24.20;72.30;;;;;;5034737;28;20027;-83
2021/01/09 03:36:35;;;;;;;;;;;24.30;71.70;;;;;;5035795;28;19913;-82
2021/01/09 03:39:01;;;;;;;;;;;24.30;70.20;;;;;;5034897;28;19909;-82
2021/01/09 03:41:28;;;;;;;;;;;24.30;71.90;;;;;;5033492;28;19920;-83
2021/01/09 03:43:54;;;;;;;;;;;24.40;71.20;;;;;;5033061;28;19913;-83
2021/01/09 03:46:21;;;;;;;;;;;24.30;70.00;;;;;;5034105;28;20418;-82
2021/01/09 03:48:48;;;;;;;;;;;24.20;71.00;;;;;;5033794;28;19913;-82
2021/01/09 03:51:14;;;;;;;;;;;24.10;70.20;;;;;;5032078;28;20003;-82
2021/01/09 03:53:41;;;;;;;;;;;24.20;71.60;;;;;;5032674;28;20007;-82
2021/01/09 03:56:08;;;;;;;;;;;24.30;72.40;;;;;;5033106;28;20256;-82
2021/01/09 03:58:34;;;;;;;;;;;24.50;71.30;;;;;;5033450;28;19915;-81
2021/01/09 04:01:01;;;;;;;;;;;24.40;70.70;;;;;;5033151;28;19914;-82
2021/01/09 04:03:28;;;;;;;;;;;24.50;71.50;;;;;;5033793;28;19913;-82
2021/01/09 04:05:56;;;;;;;;;;;24.60;70.70;;;;;;5033685;28;19924;-82
2021/01/09 04:08:22;;;;;;;;;;;24.20;72.40;;;;;;5033563;28;19972;-82
2021/01/09 04:10:49;;;;;;;;;;;24.40;73.20;;;;;;5014358;28;20264;-82
2021/01/09 04:13:16;;;;;;;;;;;24.30;71.30;;;;;;5033376;28;19961;-81
2021/01/09 04:15:42;;;;;;;;;;;24.20;71.80;;;;;;5033042;28;20606;-81
2021/01/09 04:18:09;;;;;;;;;;;24.30;71.70;;;;;;5033548;28;19909;-81
2021/01/09 04:20:36;;;;;;;;;;;24.20;71.70;;;;;;5032516;28;20248;-81
2021/01/09 04:23:02;;;;;;;;;;;24.20;72.40;;;;;;5032684;28;20283;-81
2021/01/09 04:25:30;;;;;;;;;;;24.20;71.30;;;;;;5033074;28;19920;-81
2021/01/09 04:27:57;;;;;;;;;;;24.20;72.00;;;;;;5030516;28;20278;-81
2021/01/09 04:30:24;;;;;;;;;;;24.30;73.00;;;;;;5032043;28;20004;-81
2021/01/09 04:32:50;;;;;;;;;;;24.20;71.20;;;;;;5032104;28;19968;-85
2021/01/09 04:35:18;;;;;;;;;;;24.20;71.30;;;;;;5033589;28;19971;-85
2021/01/09 04:37:45;;;;;;;;;;;24.30;71.60;;;;;;5029710;28;19960;-85
2021/01/09 04:40:12;;;;;;;;;;;24.20;72.30;;;;;;5033302;28;19915;-82
2021/01/09 04:42:38;;;;;;;;;;;24.00;73.00;;;;;;5033066;28;19999;-83
2021/01/09 04:45:05;;;;;;;;;;;24.00;73.50;;;;;;5033129;28;19963;-82
2021/01/09 04:47:33;;;;;;;;;;;23.80;74.60;;;;;;5032659;28;20376;-85
2021/01/09 04:50:00;;;;;;;;;;;23.80;74.60;;;;;;5032131;28;20001;-82
2021/01/09 04:52:28;;;;;;;;;;;23.60;75.20;;;;;;5029591;28;20624;-84
2021/01/09 04:54:55;;;;;;;;;;;23.60;74.10;;;;;;5013683;28;19920;-82
2021/01/09 04:57:22;;;;;;;;;;;23.70;75.90;;;;;;5034615;28;20007;-84
2021/01/09 04:59:48;;;;;;;;;;;23.80;75.00;;;;;;5016177;28;19919;-82
2021/01/09 05:02:16;;;;;;;;;;;23.90;74.70;;;;;;5024859;28;19914;-79
2021/01/09 05:04:46;;;;;;;;;;;23.70;75.30;;;;;;5037369;28;19996;-79
2021/01/09 05:07:12;;;;;;;;;;;23.70;74.30;;;;;;5035912;28;20055;-79
2021/01/09 05:09:39;;;;;;;;;;;23.50;76.20;;;;;;5034237;28;20490;-79
2021/01/09 05:12:06;;;;;;;;;;;23.60;77.00;;;;;;5034997;28;19924;-77
2021/01/09 05:14:34;;;;;;;;;;;23.70;76.50;;;;;;5034630;28;19913;-78
2021/01/09 05:17:01;;;;;;;;;;;23.80;77.90;;;;;;5034906;28;19964;-80
2021/01/09 05:19:29;;;;;;;;;;;24.00;75.70;;;;;;5035773;28;19921;-79
2021/01/09 05:22:01;;;;;;;;;;;24.10;76.30;;;;;;5035504;28;19924;-79
2021/01/09 05:24:28;;;;;;;;;;;23.90;74.80;;;;;;5015809;28;20332;-80
2021/01/09 05:26:55;;;;;;;;;;;23.80;77.10;;;;;;5034468;28;19916;-78
2021/01/09 05:29:22;;;;;;;;;;;23.90;76.60;;;;;;5033804;28;19919;-78
2021/01/09 05:31:48;;;;;;;;;;;23.80;74.90;;;;;;5033698;28;19967;-79
2021/01/09 05:34:15;;;;;;;;;;;23.80;76.80;;;;;;5036142;28;19909;-80
2021/01/09 05:36:42;;;;;;;;;;;23.70;76.30;;;;;;5034350;28;19916;-79
2021/01/09 05:39:09;;;;;;;;;;;23.70;77.30;;;;;;5034198;28;19928;-79
2021/01/09 05:41:39;;;;;;;;;;;23.60;77.20;;;;;;5035445;28;19913;-79
2021/01/09 05:44:07;;;;;;;;;;;23.50;76.00;;;;;;5036283;28;20011;-78
2021/01/09 05:46:35;;;;;;;;;;;23.30;76.30;;;;;;5035801;28;20376;-80
2021/01/09 05:49:02;;;;;;;;;;;23.40;78.70;;;;;;5035002;28;19962;-79
2021/01/09 05:51:30;;;;;;;;;;;23.60;77.20;;;;;;5035709;28;19909;-79
2021/01/09 05:53:57;;;;;;;;;;;23.80;76.20;;;;;;5045364;28;19920;-79
2021/01/09 05:56:24;;;;;;;;;;;23.90;75.40;;;;;;5050976;28;20379;-79
2021/01/09 05:58:52;;;;;;;;;;;23.80;73.70;;;;;;5035526;28;19917;-78
2021/01/09 06:01:25;;;;;;;;;;;23.80;75.80;;;;;;5034532;28;19917;-79
2021/01/09 06:04:05;;;;;;;;;;;23.80;76.40;;;;;;5028214;28;20008;-80
2021/01/09 06:06:55;;;;;;;;;;;23.90;76.60;;;;;;5027228;28;19975;-80
2021/01/09 06:09:36;;;;;;;;;;;23.80;75.30;;;;;;5017569;28;20067;-81
2021/01/09 06:12:06;;;;;;;;;;;23.60;75.00;;;;;;5016934;28;19921;-80
2021/01/09 06:14:36;;;;;;;;;;;23.60;74.00;;;;;;5022358;28;20101;-81
2021/01/09 06:17:03;;;;;;;;;;;23.50;73.50;;;;;;5016713;28;19909;-80
2021/01/09 06:19:31;;;;;;;;;;;23.50;73.60;;;;;;5026253;28;20004;-81
2021/01/09 06:21:58;;;;;;;;;;;23.50;74.20;;;;;;5034872;28;19917;-82
2021/01/09 06:24:25;;;;;;;;;;;23.60;74.30;;;;;;5034373;28;19913;-81
2021/01/09 06:26:53;;;;;;;;;;;23.70;73.00;;;;;;5034652;28;19913;-82
2021/01/09 06:29:24;;;;;;;;;;;23.60;74.70;;;;;;5033960;28;19917;-82
2021/01/09 06:31:55;;;;;;;;;;;23.60;74.40;;;;;;5034718;28;19921;-81
2021/01/09 06:34:23;;;;;;;;;;;23.50;75.10;;;;;;5035294;28;20368;-81
2021/01/09 06:37:03;;;;;;;;;;;23.50;75.60;;;;;;5017362;28;19909;-80
2021/01/09 06:39:34;;;;;;;;;;;23.50;75.70;;;;;;5033074;28;19909;-81
2021/01/09 06:42:04;;;;;;;;;;;23.40;75.20;;;;;;5029957;28;19976;-80
2021/01/09 06:44:31;;;;;;;;;;;23.20;73.00;;;;;;5022063;28;19924;-80
2021/01/09 06:46:57;;;;;;;;;;;23.00;76.20;;;;;;5031729;28;19987;-79
2021/01/09 06:49:27;;;;;;;;;;;23.20;77.90;;;;;;5032714;28;20364;-79
2021/01/09 06:51:54;;;;;;;;;;;23.20;78.10;;;;;;5014218;28;19948;-81
2021/01/09 06:54:23;;;;;;;;;;;23.10;77.10;;;;;;5014565;28;19993;-80
2021/01/09 06:56:50;;;;;;;;;;;22.90;77.20;;;;;;5032297;28;20013;-83
2021/01/09 06:59:29;;;;;;;;;;;22.90;77.30;;;;;;5032457;28;19917;-82
2021/01/09 07:02:14;;;;;;;;;;;23.00;77.50;;;;;;5034626;28;19913;-80
2021/01/09 07:05:01;;;;;;;;;;;23.10;77.20;;;;;;5033268;28;20348;-81
2021/01/09 07:07:35;;;;;;;;;;;23.10;76.60;;;;;;5014618;28;20359;-83
2021/01/09 07:10:15;;;;;;;;;;;23.00;77.40;;;;;;5013853;28;19975;-80
2021/01/09 07:12:47;;;;;;;;;;;23.10;77.20;;;;;;5031599;28;19925;-83
2021/01/09 07:15:14;;;;;;;;;;;23.00;78.50;;;;;;5032460;28;19909;-80
2021/01/09 07:17:41;;;;;;;;;;;22.80;77.50;;;;;;5031092;28;20351;-81
2021/01/09 07:20:09;;;;;;;;;;;22.70;78.10;;;;;;5032574;28;20307;-81
2021/01/09 07:22:40;;;;;;;;;;;22.80;78.40;;;;;;5031678;28;19940;-85
2021/01/09 07:25:08;;;;;;;;;;;22.70;79.70;;;;;;5013737;28;19996;-83
2021/01/09 07:27:37;;;;;;;;;;;22.70;79.80;;;;;;5030953;28;19909;-83
2021/01/09 07:30:10;;;;;;;;;;;22.70;79.40;;;;;;5031070;28;19912;-82
2021/01/09 07:32:40;;;;;;;;;;;22.70;80.90;;;;;;5031600;28;20410;-80
2021/01/09 07:35:07;;;;;;;;;;;22.70;81.60;;;;;;5013272;28;19913;-81
2021/01/09 07:37:39;;;;;;;;;;;22.70;81.80;;;;;;5027984;28;19913;-81
2021/01/09 07:40:11;;;;;;;;;;;22.60;83.20;;;;;;5040006;28;19918;-80
2021/01/09 07:42:38;;;;;;;;;;;22.50;84.20;;;;;;5050129;28;19940;-81
2021/01/09 07:45:05;;;;;;;;;;;22.40;85.00;;;;;;5030274;28;20466;-80
2021/01/09 07:47:36;;;;;;;;;;;22.40;85.30;;;;;;5031246;28;19921;-79
2021/01/09 07:50:06;;;;;;;;;;;22.30;85.90;;;;;;5032030;28;20022;-80
2021/01/09 07:52:34;;;;;;;;;;;22.40;86.60;;;;;;5031073;28;19932;-80
2021/01/09 07:55:02;;;;;;;;;;;22.30;86.80;;;;;;5031273;28;20290;-81
2021/01/09 07:57:30;;;;;;;;;;;22.30;87.50;;;;;;5029994;28;19913;-81
2021/01/09 07:59:57;;;;;;;;;;;22.30;87.80;;;;;;5031081;28;20638;-78
2021/01/09 08:02:27;;;;;;;;;;;22.30;87.40;;;;;;5031817;28;19920;-82
2021/01/09 08:05:07;;;;;;;;;;;22.20;87.80;;;;;;5013980;28;20356;-81
2021/01/09 08:07:44;;;;;;;;;;;22.20;88.20;;;;;;5033222;28;20047;-82
2021/01/09 08:10:20;;;;;;;;;;;22.20;88.60;;;;;;5033639;28;20004;-80
2021/01/09 08:12:47;;;;;;;;;;;22.20;89.00;;;;;;5028168;28;20276;-81
2021/01/09 08:15:14;;;;;;;;;;;22.20;89.80;;;;;;5028935;28;19958;-81
2021/01/09 08:17:41;;;;;;;;;;;22.20;89.30;;;;;;5031069;28;19917;-82
2021/01/09 08:20:11;;;;;;;;;;;22.10;89.20;;;;;;5032054;28;20338;-81
2021/01/09 08:22:39;;;;;;;;;;;22.10;88.90;;;;;;5026403;28;19936;-81
2021/01/09 08:25:09;;;;;;;;;;;22.00;89.20;;;;;;5031116;28;19924;-80
2021/01/09 08:27:46;;;;;;;;;;;22.00;89.30;;;;;;5032695;28;20360;-82
2021/01/09 08:30:14;;;;;;;;;;;22.00;88.90;;;;;;5027735;28;19917;-83
2021/01/09 08:32:40;;;;;;;;;;;22.00;87.90;;;;;;5033044;28;20367;-82
2021/01/09 08:35:08;;;;;;;;;;;21.90;87.80;;;;;;5032228;28;19962;-81
2021/01/09 08:37:34;;;;;;;;;;;21.90;87.30;;;;;;5032967;28;19916;-82
2021/01/09 08:40:14;;;;;;;;;;;21.80;88.00;;;;;;5032074;28;19913;-80
2021/01/09 08:42:58;;;;;;;;;;;21.80;88.50;;;;;;5022520;28;19909;-80
2021/01/09 08:45:42;;;;;;;;;;;21.90;88.80;;;;;;5032408;28;20335;-79
2021/01/09 08:48:10;;;;;;;;;;;21.80;89.40;;;;;;5013380;28;19933;-79
2021/01/09 08:50:42;;;;;;;;;;;21.70;89.40;;;;;;5013895;28;20328;-79
2021/01/09 08:53:10;;;;;;;;;;;21.70;89.80;;;;;;5032758;28;20409;-79
2021/01/09 08:55:37;;;;;;;;;;;21.70;90.10;;;;;;5032262;28;19921;-79
2021/01/09 08:58:08;;;;;;;;;;;21.70;90.20;;;;;;5032612;28;19916;-80
2021/01/09 09:00:35;;;;;;;;;;;21.60;90.30;;;;;;5028696;28;20305;-80
2021/01/09 09:03:02;;;;;;;;;;;21.60;90.50;;;;;;5027444;28;20344;-80
2021/01/09 09:05:29;;;;;;;;;;;21.60;90.50;;;;;;5032665;28;19909;-79
2021/01/09 09:07:57;;;;;;;;;;;21.60;90.40;;;;;;5033196;28;19913;-79
2021/01/09 09:10:27;;;;;;;;;;;21.60;90.50;;;;;;5038234;28;19940;-81
2021/01/09 09:12:54;;;;;;;;;;;21.60;90.50;;;;;;5023501;28;19917;-78
2021/01/09 09:15:30;;;;;;;;;;;21.50;90.60;;;;;;5042837;28;20283;-80
2021/01/09 09:17:56;;;;;;;;;;;21.60;90.50;;;;;;5046820;28;19913;-79
2021/01/09 09:20:24;;;;;;;;;;;21.50;90.50;;;;;;5024841;28;19996;-81
2021/01/09 09:22:52;;;;;;;;;;;21.50;90.70;;;;;;5029863;28;19914;-80
2021/01/09 09:25:25;;;;;;;;;;;21.50;90.70;;;;;;5010149;28;20000;-83
2021/01/09 09:28:01;;;;;;;;;;;21.50;90.70;;;;;;5027190;28;19952;-79
2021/01/09 09:30:28;;;;;;;;;;;21.50;90.50;;;;;;5028179;28;19916;-81
2021/01/09 09:32:55;;;;;;;;;;;21.50;90.60;;;;;;5015560;28;19918;-81
2021/01/09 09:35:26;;;;;;;;;;;21.50;90.50;;;;;;5009632;28;19944;-80
2021/01/09 09:37:53;;;;;;;;;;;21.50;90.80;;;;;;5010300;28;19913;-82
2021/01/09 09:40:23;;;;;;;;;;;21.50;91.20;;;;;;5027528;28;19913;-78
2021/01/09 09:42:49;;;;;;;;;;;21.50;91.60;;;;;;5029672;28;19936;-82
2021/01/09 09:45:19;;;;;;;;;;;21.50;92.10;;;;;;5029642;28;19909;-79
2021/01/09 09:47:50;;;;;;;;;;;21.40;92.80;;;;;;5029701;28;19921;-82
2021/01/09 09:50:20;;;;;;;;;;;21.40;93.20;;;;;;5032479;28;19913;-81
2021/01/09 09:52:57;;;;;;;;;;;21.30;93.50;;;;;;5032726;28;19925;-82
2021/01/09 09:55:24;;;;;;;;;;;21.30;93.70;;;;;;5032779;28;19917;-80
2021/01/09 09:58:10;;;;;;;;;;;21.30;93.90;;;;;;5033185;28;19920;-76
2021/01/09 10:00:46;;;;;;;;;;;21.30;94.00;;;;;;5013400;28;19921;-81
2021/01/09 10:03:13;;;;;;;;;;;21.30;94.20;;;;;;5027323;28;19921;-82
2021/01/09 10:05:41;;;;;;;;;;;21.30;94.10;;;;;;5032043;28;19913;-80
2021/01/09 10:08:09;;;;;;;;;;;21.20;94.10;;;;;;5032348;28;20379;-85
2021/01/09 10:10:35;;;;;;;;;;;21.20;94.10;;;;;;5033221;28;19917;-83
2021/01/09 10:13:02;;;;;;;;;;;21.20;94.30;;;;;;5031011;28;20034;-81
2021/01/09 10:15:29;;;;;;;;;;;21.20;94.40;;;;;;5032019;28;19928;-80
2021/01/09 10:17:56;;;;;;;;;;;21.10;94.40;;;;;;5031216;28;20047;-77
2021/01/09 10:20:23;;;;;;;;;;;21.20;94.40;;;;;;5028199;28;19996;-82
2021/01/09 10:22:49;;;;;;;;;;;21.10;94.40;;;;;;5031119;28;19920;-79
2021/01/09 10:25:16;;;;;;;;;;;21.20;94.40;;;;;;5031580;28;19919;-85
2021/01/09 10:27:43;;;;;;;;;;;21.10;94.50;;;;;;5032475;28;19932;-82
2021/01/09 10:30:10;;;;;;;;;;;21.10;94.10;;;;;;5032382;28;19960;-81
2021/01/09 10:32:37;;;;;;;;;;;21.10;94.30;;;;;;5031826;28;20401;-80
2021/01/09 10:35:04;;;;;;;;;;;21.10;94.30;;;;;;5032303;28;20000;-79
2021/01/09 10:37:31;;;;;;;;;;;21.10;94.40;;;;;;5032013;28;19917;-78
2021/01/09 10:39:57;;;;;;;;;;;21.10;94.40;;;;;;5032062;28;19917;-79
2021/01/09 10:42:27;;;;;;;;;;;21.10;94.50;;;;;;5031852;28;20339;-79
2021/01/09 10:44:54;;;;;;;;;;;21.20;94.40;;;;;;5032132;28;19920;-80
2021/01/09 10:47:21;;;;;;;;;;;21.10;94.50;;;;;;5031548;28;20438;-79
2021/01/09 10:49:47;;;;;;;;;;;21.10;94.70;;;;;;5031495;28;19944;-80
2021/01/09 10:52:14;;;;;;;;;;;21.10;94.70;;;;;;5031616;28;19975;-82
2021/01/09 10:54:41;;;;;;;;;;;21.20;94.80;;;;;;5031667;28;19913;-81
2021/01/09 10:57:07;;;;;;;;;;;21.10;94.90;;;;;;5031409;28;19917;-77
2021/01/09 10:59:34;;;;;;;;;;;21.00;95.00;;;;;;5030641;28;20402;-82
2021/01/09 11:02:04;;;;;;;;;;;21.00;95.20;;;;;;5012760;28;19917;-79
2021/01/09 11:04:31;;;;;;;;;;;21.00;95.20;;;;;;5031268;28;19921;-80
2021/01/09 11:06:58;;;;;;;;;;;21.00;95.20;;;;;;5031896;28;19924;-83
2021/01/09 11:09:25;;;;;;;;;;;21.00;95.20;;;;;;5031748;28;19923;-82
2021/01/09 11:11:52;;;;;;;;;;;21.00;95.30;;;;;;5027284;28;19925;-82
2021/01/09 11:14:19;;;;;;;;;;;21.00;95.30;;;;;;5022862;28;19913;-85
2021/01/09 11:16:45;;;;;;;;;;;21.00;95.60;;;;;;5031973;28;19914;-82
2021/01/09 11:19:12;;;;;;;;;;;21.00;95.70;;;;;;5044356;28;19935;-81
2021/01/09 11:21:39;;;;;;;;;;;20.90;95.60;;;;;;5031692;28;19913;-84
2021/01/09 11:24:06;;;;;;;;;;;21.00;95.60;;;;;;5013364;28;19940;-82
2021/01/09 11:26:33;;;;;;;;;;;21.00;95.70;;;;;;5013816;28;19916;-84
2021/01/09 11:28:59;;;;;;;;;;;21.00;95.70;;;;;;5031598;28;19962;-82
2021/01/09 11:31:26;;;;;;;;;;;20.90;95.70;;;;;;5030957;28;19913;-78
2021/01/09 11:33:53;;;;;;;;;;;21.00;95.90;;;;;;5031074;28;19921;-82
2021/01/09 11:36:19;;;;;;;;;;;21.00;95.80;;;;;;5030889;28;19913;-81
2021/01/09 11:38:47;;;;;;;;;;;20.90;95.80;;;;;;5032804;28;20016;-86
2021/01/09 11:41:14;;;;;;;;;;;20.90;95.90;;;;;;5040149;28;19928;-83
2021/01/09 11:43:42;;;;;;;;;;;21.00;95.90;;;;;;5038400;28;19917;-80
2021/01/09 11:46:09;;;;;;;;;;;20.90;95.90;;;;;;5030310;28;20408;-78
2021/01/09 11:48:36;;;;;;;;;;;20.90;96.10;;;;;;5030948;28;20011;-80
2021/01/09 11:51:04;;;;;;;;;;;20.80;96.10;;;;;;5031577;28;19909;-81
2021/01/09 11:53:30;;;;;;;;;;;20.80;96.10;;;;;;5030866;28;19968;-82
2021/01/09 11:55:57;;;;;;;;;;;20.80;96.30;;;;;;5030715;28;19964;-82
2021/01/09 11:58:24;;;;;;;;;;;20.70;96.30;;;;;;5030715;28;19919;-83
2021/01/09 12:00:50;;;;;;;;;;;20.70;96.30;;;;;;5031241;28;20279;-81
2021/01/09 12:03:17;;;;;;;;;;;20.70;96.30;;;;;;5013052;28;19952;-82
2021/01/09 12:05:45;;;;;;;;;;;20.70;96.30;;;;;;5032752;28;19928;-81
2021/01/09 12:08:12;;;;;;;;;;;20.70;96.40;;;;;;5013335;28;20008;-82
2021/01/09 12:10:41;;;;;;;;;;;20.70;96.50;;;;;;5029838;28;20287;-80
2021/01/09 12:13:08;;;;;;;;;;;20.70;96.50;;;;;;5030480;28;19939;-78
2021/01/09 12:15:34;;;;;;;;;;;20.70;96.60;;;;;;5029898;28;20414;-81
2021/01/09 12:18:01;;;;;;;;;;;20.70;96.50;;;;;;5030784;28;19953;-79
2021/01/09 12:20:28;;;;;;;;;;;20.70;96.70;;;;;;5030505;28;19920;-84
2021/01/09 12:22:54;;;;;;;;;;;20.70;96.60;;;;;;5029651;28;20023;-83
2021/01/09 12:25:21;;;;;;;;;;;20.70;96.60;;;;;;5030413;28;19955;-83
2021/01/09 12:27:48;;;;;;;;;;;20.60;96.50;;;;;;5030910;28;20322;-82
2021/01/09 12:30:15;;;;;;;;;;;20.60;96.40;;;;;;5030445;28;20320;-79
2021/01/09 12:32:41;;;;;;;;;;;20.70;96.60;;;;;;5029645;28;19925;-80
2021/01/09 12:35:08;;;;;;;;;;;20.70;96.70;;;;;;5030253;28;20043;-83
2021/01/09 12:37:35;;;;;;;;;;;20.70;96.70;;;;;;5029608;28;19917;-86
2021/01/09 12:40:02;;;;;;;;;;;20.70;96.80;;;;;;5030558;28;19913;-79
2021/01/09 12:42:29;;;;;;;;;;;20.70;96.30;;;;;;5030779;28;19909;-82
2021/01/09 12:44:55;;;;;;;;;;;20.70;96.40;;;;;;5029461;28;19913;-84
2021/01/09 12:47:22;;;;;;;;;;;20.70;96.60;;;;;;5030091;28;19954;-82
2021/01/09 12:49:49;;;;;;;;;;;20.60;96.60;;;;;;5030096;28;19913;-83
2021/01/09 12:52:15;;;;;;;;;;;20.60;96.80;;;;;;5035174;28;19927;-79
2021/01/09 12:54:42;;;;;;;;;;;20.50;97.00;;;;;;5036413;28;19955;-80
2021/01/09 12:57:09;;;;;;;;;;;20.40;97.20;;;;;;5039107;28;19917;-80
2021/01/09 12:59:35;;;;;;;;;;;20.30;97.30;;;;;;5039808;28;19928;-80
2021/01/09 13:02:02;;;;;;;;;;;20.30;97.40;;;;;;5037866;28;20232;-80
2021/01/09 13:04:28;;;;;;;;;;;20.20;97.50;;;;;;5038231;28;20367;-81
2021/01/09 13:06:57;;;;;;;;;;;20.20;97.60;;;;;;5039708;28;19999;-82
2021/01/09 13:09:26;;;;;;;;;;;20.10;97.80;;;;;;5039365;28;20319;-83
2021/01/09 13:11:53;;;;;;;;;;;20.10;97.90;;;;;;5038813;28;19983;-82
2021/01/09 13:14:20;;;;;;;;;;;20.10;98.10;;;;;;5037863;28;20295;-80
2021/01/09 13:16:48;;;;;;;;;;;20.10;98.10;;;;;;5039547;28;19916;-81
2021/01/09 13:19:15;;;;;;;;;;;20.00;98.20;;;;;;5038535;28;19917;-80
2021/01/09 13:21:42;;;;;;;;;;;20.00;98.30;;;;;;5040045;28;19909;-78
2021/01/09 13:24:10;;;;;;;;;;;20.00;98.30;;;;;;5031780;28;19920;-81
2021/01/09 13:26:39;;;;;;;;;;;20.00;98.40;;;;;;5034069;28;19909;-79
2021/01/09 13:29:06;;;;;;;;;;;20.00;98.30;;;;;;5033726;28;19909;-81
2021/01/09 13:31:36;;;;;;;;;;;20.10;98.30;;;;;;5033242;28;20364;-78
2021/01/09 13:34:02;;;;;;;;;;;20.10;98.20;;;;;;5013847;28;19971;-80
2021/01/09 13:36:30;;;;;;;;;;;20.10;98.10;;;;;;5014167;28;19916;-79
2021/01/09 13:38:58;;;;;;;;;;;20.10;98.10;;;;;;5028876;28;20447;-79
2021/01/09 13:41:24;;;;;;;;;;;20.10;98.20;;;;;;5015290;28;20392;-79
2021/01/09 13:43:51;;;;;;;;;;;20.10;98.10;;;;;;5033334;28;19913;-84
2021/01/09 13:46:19;;;;;;;;;;;20.10;98.20;;;;;;5033565;28;20011;-79
2021/01/09 13:48:45;;;;;;;;;;;20.20;98.10;;;;;;5031700;28;20287;-80
2021/01/09 13:51:18;;;;;;;;;;;20.20;98.10;;;;;;5033816;28;19920;-83
2021/01/09 13:53:45;;;;;;;;;;;20.30;97.90;;;;;;5032919;28;20363;-80
2021/01/09 13:56:11;;;;;;;;;;;20.30;97.80;;;;;;5033650;28;19913;-78
2021/01/09 13:58:39;;;;;;;;;;;20.20;97.90;;;;;;5033910;28;20035;-82
2021/01/09 14:01:05;;;;;;;;;;;20.20;98.00;;;;;;5034022;28;19920;-80
2021/01/09 14:03:32;;;;;;;;;;;20.10;98.00;;;;;;5034026;28;19916;-80
2021/01/09 14:05:59;;;;;;;;;;;20.10;98.10;;;;;;5033825;28;19909;-81
2021/01/09 14:08:25;;;;;;;;;;;20.10;98.20;;;;;;5033876;28;19936;-81
2021/01/09 14:10:52;;;;;;;;;;;20.00;98.30;;;;;;5033948;28;20387;-81
2021/01/09 14:13:18;;;;;;;;;;;20.00;98.40;;;;;;5015901;28;19928;-84
2021/01/09 14:15:45;;;;;;;;;;;19.90;98.40;;;;;;5033676;28;19913;-82
2021/01/09 14:18:12;;;;;;;;;;;19.90;98.60;;;;;;5033495;28;20386;-83
2021/01/09 14:20:38;;;;;;;;;;;19.90;98.60;;;;;;5033487;28;19944;-79